Time;durP1;ratioP1;P1;durP2;ratioP2;P2;SDS_P1;SDS_P2;PMS_P1;PMS_P2;Temp;Humidity;BMP_temperature;BMP_pressure;BME280_temperature;BME280_humidity;BME280_pressure;Samples;Min_cycle;Max_cycle;Signal;HPM_P1;HPM_P2
2023/07/23 00:01:29;;;;;;;9.05;8.85;;;;;;;-141.02;100.00;48755.88;5136340;27;20201;-63
2023/07/23 00:04:20;;;;;;;9.25;9.05;;;;;;;-141.02;100.00;48496.28;5136231;27;20207;-60
2023/07/23 00:06:47;;;;;;;9.70;9.40;;;;;;;-141.02;100.00;48196.31;5136659;27;20220;-65
2023/07/23 00:09:14;;;;;;;9.63;9.32;;;;;;;-141.02;100.00;47127.38;5135958;27;20279;-62
2023/07/23 00:11:41;;;;;;;9.13;8.93;;;;;;;-141.02;100.00;46337.47;5135881;27;20188;-59
2023/07/23 00:14:09;;;;;;;9.60;9.30;;;;;;;-141.02;100.00;45540.03;5135740;27;20199;-60
2023/07/23 00:16:36;;;;;;;10.40;10.10;;;;;;;-141.02;100.00;45059.75;5135770;27;20200;-61
2023/07/23 00:19:04;;;;;;;10.80;10.50;;;;;;;-141.02;100.00;44375.94;5135765;27;20753;-61
2023/07/23 00:21:31;;;;;;;10.75;10.45;;;;;;;-141.02;100.00;44191.56;5135606;27;20200;-59
2023/07/23 00:23:59;;;;;;;11.25;10.95;;;;;;;-141.02;100.00;43550.16;5136060;27;20196;-61
2023/07/23 00:26:27;;;;;;;10.60;10.30;;;;;;;-141.02;100.00;43546.31;5135221;27;20220;-65
2023/07/23 00:29:30;;;;;;;10.32;10.02;;;;;;;-141.02;100.00;43669.22;5135891;27;20715;-58
2023/07/23 00:31:56;;;;;;;10.25;9.95;;;;;;;-141.02;100.00;43116.22;5135052;27;20727;-62
2023/07/23 00:34:24;;;;;;;12.10;11.70;;;;;;;-141.02;100.00;42613.25;5135689;27;20192;-62
2023/07/23 00:36:51;;;;;;;11.35;11.05;;;;;;;-141.02;100.00;42530.72;5135402;27;20647;-63
2023/07/23 00:39:38;;;;;;;11.27;10.98;;;;;;;-141.02;100.00;42419.38;5135641;27;20271;-61
2023/07/23 00:42:05;;;;;;;11.20;10.90;;;;;;;-141.02;100.00;42187.13;5135619;27;20199;-65
2023/07/23 00:44:34;;;;;;;10.50;10.20;;;;;;;-141.02;100.00;42574.88;5135532;27;20208;-64
2023/07/23 00:47:03;;;;;;;9.60;9.30;;;;;;;-141.02;100.00;43588.56;5135124;27;20281;-65
2023/07/23 00:49:57;;;;;;;9.35;9.15;;;;;;;-141.02;100.00;44295.25;5135128;27;20647;-64
2023/07/23 00:52:34;;;;;;;8.70;8.50;;;;;;;-141.02;100.00;44823.47;5135086;27;20396;-63
2023/07/23 00:55:18;;;;;;;8.10;7.90;;;;;;;-141.02;100.00;45171.16;5134947;27;20271;-64
2023/07/23 00:57:46;;;;;;;8.48;8.27;;;;;;;-141.02;100.00;44466.19;5134964;27;20224;-62
2023/07/23 01:00:15;;;;;;;9.10;8.90;;;;;;;-141.02;100.00;44433.53;5134950;27;20188;-64
2023/07/23 01:03:14;;;;;;;8.48;8.27;;;;;;;-141.02;100.00;44767.75;5134890;27;20283;-65
2023/07/23 01:06:16;;;;;;;9.50;9.20;;;;;;;-141.02;100.00;43304.38;5134891;27;20228;-64
2023/07/23 01:09:00;;;;;;;10.27;9.98;;;;;;;-141.02;100.00;42686.19;5134732;27;20226;-62
2023/07/23 01:12:14;;;;;;;11.20;10.90;;;;;;;-141.02;100.00;42613.25;5134715;27;20196;-65
2023/07/23 01:14:41;;;;;;;11.05;10.75;;;;;;;-141.02;100.00;42515.34;5133175;27;20192;-65
2023/07/23 01:20:32;;;;;;;11.50;11.20;;;;;;;-141.02;100.00;42048.94;5134635;27;20243;-65
2023/07/23 01:26:22;;;;;;;11.98;11.57;;;;;;;-141.02;100.00;41411.78;5134404;27;20216;-66
2023/07/23 01:32:37;;;;;;;12.48;12.07;;;;;;;-141.02;100.00;41665.09;5115620;27;20216;-63
2023/07/23 01:35:09;;;;;;;12.98;12.57;;;;;;;-141.02;100.00;41463.59;5094008;28;20239;-60
2023/07/23 01:37:41;;;;;;;13.18;12.77;;;;;;;-141.02;100.00;41116.28;5093273;28;20234;-58
2023/07/23 01:40:09;;;;;;;13.60;13.20;;;;;;;-141.02;100.00;41054.88;5093064;28;20200;-64
2023/07/23 01:42:37;;;;;;;13.60;13.20;;;;;;;-141.02;100.00;41049.13;5093534;28;20281;-60
2023/07/23 01:45:13;;;;;;;13.18;12.77;;;;;;;-141.02;100.00;40759.41;5093177;28;20200;-61
2023/07/23 01:47:40;;;;;;;14.38;13.88;;;;;;;-141.02;100.00;40728.72;5092996;28;20710;-61
2023/07/23 01:50:08;;;;;;;15.10;14.60;;;;;;;-141.02;100.00;40770.91;5093048;28;20281;-61
2023/07/23 01:52:35;;;;;;;14.88;14.38;;;;;;;-141.02;100.00;41001.16;5093007;28;20647;-58
2023/07/23 01:55:52;;;;;;;13.07;12.68;;;;;;;-141.02;100.00;41726.50;5093257;28;20197;-60
2023/07/23 01:58:59;;;;;;;9.63;9.32;;;;;;;-141.02;100.00;42751.47;5093259;28;20197;-60
2023/07/23 02:02:21;;;;;;;9.25;8.98;;;;;;;-141.02;100.00;43292.88;5093454;28;20288;-61
2023/07/23 02:08:11;;;;;;;8.38;8.18;;;;;;;-141.02;100.00;44360.56;5092634;28;20263;-62
2023/07/23 02:10:38;;;;;;;8.40;8.20;;;;;;;-141.02;100.00;44848.44;5093011;28;20219;-61
2023/07/23 02:13:57;;;;;;;8.32;8.13;;;;;;;-141.02;100.00;45736.00;5092912;28;20196;-61
2023/07/23 02:19:57;;;;;;;7.20;7.00;;;;;;;-141.02;100.00;51901.66;5092641;28;20181;-62
2023/07/23 02:22:24;;;;;;;6.82;6.63;;;;;;;-141.02;100.00;55033.00;5092393;28;20189;-59
2023/07/23 02:25:18;;;;;;;6.70;6.50;;;;;;;-141.02;100.00;56759.78;5092474;28;20286;-62
2023/07/23 02:28:40;;;;;;;6.20;6.10;;;;;;;-141.02;100.00;57500.06;5092397;28;20283;-58
2023/07/23 02:31:09;;;;;;;6.20;6.10;;;;;;;-141.02;100.00;57993.72;5092427;28;20197;-65
2023/07/23 02:36:57;;;;;;;5.85;5.75;;;;;;;-141.02;100.00;63922.84;5133326;27;20179;-59
2023/07/23 02:39:24;;;;;;;5.40;5.30;;;;;;;-141.02;100.00;69119.34;5133437;27;20246;-65
2023/07/23 02:41:53;;;;;;;5.05;4.95;;;;;;;-141.02;100.00;72588.06;5133046;27;20602;-58
2023/07/23 02:44:20;;;;;;;4.60;4.50;;;;;;;-141.02;100.00;75564.03;5133332;27;20192;-60
2023/07/23 02:46:47;;;;;;;4.75;4.65;;;;;;;-141.02;100.00;77797.72;5132844;27;20228;-61
2023/07/23 02:49:14;;;;;;;4.40;4.30;;;;;;;-141.02;100.00;80032.88;5132991;27;20206;-63
2023/07/23 02:55:02;;;;;;;4.43;4.32;;;;;;;-141.02;100.00;84507.50;5133013;27;20558;-65
2023/07/23 03:01:00;;;;;;;4.30;4.20;;;;;;;-141.02;100.00;89486.16;5132893;28;20211;-62
2023/07/23 03:04:07;;;;;;;3.90;3.80;;;;;;;-141.02;100.00;91728.88;5131528;28;20199;-62
2023/07/23 03:06:34;;;;;;;3.40;3.40;;;;;;;-141.02;100.00;93474.22;5132772;27;20657;-64
2023/07/23 03:09:01;;;;;;;3.30;3.30;;;;;;;-141.02;100.00;94222.50;5133025;28;20224;-64
2023/07/23 03:11:28;;;;;;;3.60;3.50;;;;;;;-141.02;100.00;94222.50;5133044;28;20249;-62
2023/07/23 03:14:21;;;;;;;3.80;3.70;;;;;;;-141.02;100.00;93973.06;5132754;28;20235;-65
2023/07/23 03:20:13;;;;;;;4.30;4.20;;;;;;;-141.02;100.00;92476.78;5132764;28;20180;-64
2023/07/23 03:26:53;;;;;;;4.35;4.25;;;;;;;-141.02;100.00;92476.78;5132772;28;20657;-59
2023/07/23 03:29:28;;;;;;;4.70;4.60;;;;;;;-141.02;100.00;92476.78;5132572;27;20196;-63
2023/07/23 03:32:01;;;;;;;4.80;4.70;;;;;;;-141.02;100.00;92726.13;5133168;28;20203;-64
2023/07/23 03:34:35;;;;;;;4.65;4.55;;;;;;;-141.02;100.00;92726.13;5132293;27;20228;-65
2023/07/23 03:37:18;;;;;;;4.85;4.75;;;;;;;-141.02;100.00;92726.13;5132704;28;20200;-63
2023/07/23 03:39:50;;;;;;;5.10;5.00;;;;;;;-141.02;100.00;92726.13;5132665;28;20199;-65
2023/07/23 03:42:20;;;;;;;4.80;4.70;;;;;;;-141.02;100.00;92975.47;5132584;27;20703;-64
2023/07/23 03:44:51;;;;;;;5.30;5.20;;;;;;;-141.02;100.00;92975.47;5132409;28;20288;-64
2023/07/23 03:47:21;;;;;;;4.50;4.40;;;;;;;-141.02;100.00;93224.84;5132566;28;20227;-62
2023/07/23 03:56:33;;;;;;;7.25;7.05;;;;;;;-141.02;100.00;87493.84;5132789;28;20183;-64
2023/07/23 04:02:59;;;;;;;8.75;8.55;;;;;;;-141.02;100.00;82518.06;5134151;27;20280;-64
2023/07/23 04:06:19;;;;;;;9.40;9.18;;;;;;;-141.02;100.00;80778.25;5135985;27;20192;-63
2023/07/23 04:08:46;;;;;;;9.70;9.40;;;;;;;-141.02;100.00;79536.03;5135936;27;20759;-64
2023/07/23 04:11:13;;;;;;;10.50;10.20;;;;;;;-141.02;100.00;78542.63;5135896;27;20651;-64
2023/07/23 04:13:41;;;;;;;10.20;9.90;;;;;;;-141.02;100.00;77549.47;5136272;27;20238;-63
2023/07/23 04:16:11;;;;;;;10.57;10.27;;;;;;;-141.02;100.00;76556.59;5136130;27;20276;-64
2023/07/23 04:19:24;;;;;;;11.88;11.50;;;;;;;-141.02;100.00;76060.28;5135799;27;20204;-65
2023/07/23 04:21:51;;;;;;;11.75;11.35;;;;;;;-141.02;100.00;74323.72;5135834;27;20206;-65
2023/07/23 04:24:18;;;;;;;12.35;11.95;;;;;;;-141.02;100.00;73579.75;5135620;27;20196;-64
2023/07/23 04:30:09;;;;;;;12.07;11.68;;;;;;;-141.02;100.00;72835.97;5135772;27;20229;-61
2023/07/23 04:37:13;;;;;;;13.10;12.70;;;;;;;-141.02;100.00;71101.03;5094985;28;20269;-65
2023/07/23 04:39:40;;;;;;;12.93;12.52;;;;;;;-141.02;100.00;71101.03;5094434;28;20678;-64
2023/07/23 04:42:11;;;;;;;13.00;12.60;;;;;;;-141.02;100.00;70605.50;5094753;28;20193;-60
2023/07/23 04:45:02;;;;;;;13.55;13.15;;;;;;;-141.02;100.00;70110.03;5094705;28;20198;-62
2023/07/23 04:51:06;;;;;;;12.57;12.18;;;;;;;-141.02;100.00;69614.66;5094294;28;20583;-61
2023/07/23 04:54:12;;;;;;;13.02;12.63;;;;;;;-141.02;100.00;69862.34;5094346;28;20182;-65
2023/07/23 04:56:57;;;;;;;12.82;12.43;;;;;;;-141.02;100.00;68871.72;5094285;28;20197;-61
2023/07/23 04:59:48;;;;;;;13.32;12.82;;;;;;;-141.02;100.00;68871.72;5094438;28;20220;-65
2023/07/23 05:02:16;;;;;;;13.15;12.75;;;;;;;-141.02;100.00;68376.50;5094269;28;20202;-65
2023/07/23 05:04:42;;;;;;;13.52;13.10;;;;;;;-141.02;100.00;68128.91;5094852;28;20256;-58
2023/07/23 05:07:11;;;;;;;13.18;12.70;;;;;;;-141.02;100.00;68128.91;5093899;28;20229;-58
2023/07/23 05:09:38;;;;;;;13.27;12.77;;;;;;;-141.02;100.00;67633.81;5094241;28;20194;-63
2023/07/23 05:12:06;;;;;;;13.90;13.40;;;;;;;-141.02;100.00;67386.28;5094100;28;20190;-65
2023/07/23 05:14:34;;;;;;;13.65;13.15;;;;;;;-141.02;100.00;67138.78;5092814;28;20194;-66
2023/07/23 05:17:01;;;;;;;13.50;13.00;;;;;;;-141.02;100.00;67386.28;5094076;28;20721;-64
2023/07/23 05:19:28;;;;;;;13.52;13.02;;;;;;;-141.02;100.00;67386.28;5094053;28;20271;-64
2023/07/23 05:21:56;;;;;;;13.85;13.35;;;;;;;-141.02;100.00;66891.31;5093952;28;20198;-62
2023/07/23 05:24:25;;;;;;;14.55;13.95;;;;;;;-141.02;100.00;66396.38;5093507;28;20198;-61
2023/07/23 05:26:53;;;;;;;14.35;13.85;;;;;;;-141.02;100.00;65901.53;5093907;28;20228;-62
2023/07/23 05:29:20;;;;;;;14.75;14.15;;;;;;;-141.02;100.00;65159.41;5093772;28;20229;-60
2023/07/23 05:31:47;;;;;;;14.75;14.23;;;;;;;-141.02;100.00;64912.06;5093477;28;20200;-61
2023/07/23 05:34:14;;;;;;;14.75;14.25;;;;;;;-141.02;100.00;64912.06;5110963;27;20228;-63
2023/07/23 05:36:41;;;;;;;15.27;14.68;;;;;;;-141.02;100.00;64170.13;5134288;27;20287;-58
2023/07/23 05:39:09;;;;;;;14.70;14.10;;;;;;;-141.02;100.00;62933.94;5134573;27;20275;-60
2023/07/23 05:41:37;;;;;;;15.80;15.10;;;;;;;-141.02;100.00;62686.75;5134397;27;20245;-64
2023/07/23 05:44:04;;;;;;;16.20;15.50;;;;;;;-141.02;100.00;62192.44;5134520;27;20192;-59
2023/07/23 05:46:31;;;;;;;46.55;43.95;;;;;;;-141.02;100.00;62192.44;5134413;27;20193;-62
2023/07/23 05:48:58;;;;;;;69.97;66.47;;;;;;;-141.02;100.00;61451.13;5134004;27;20311;-58
2023/07/23 05:51:25;;;;;;;66.03;62.72;;;;;;;-141.02;100.00;60957.00;5134367;27;20204;-57
2023/07/23 05:53:52;;;;;;;35.20;33.53;;;;;;;-141.02;100.00;61698.22;5133864;27;20292;-61
2023/07/23 05:56:19;;;;;;;15.27;14.68;;;;;;;-141.02;100.00;61204.03;5133899;27;20224;-65
2023/07/23 05:58:47;;;;;;;13.93;13.43;;;;;;;-141.02;100.00;61698.22;5133829;27;20647;-60
2023/07/23 06:01:14;;;;;;;14.35;13.85;;;;;;;-141.02;100.00;61204.03;5133795;27;20193;-64
2023/07/23 06:03:41;;;;;;;14.30;13.80;;;;;;;-141.02;100.00;60957.00;5134095;27;20224;-59
2023/07/23 06:06:08;;;;;;;14.07;13.57;;;;;;;-141.02;100.00;60709.94;5133657;27;20192;-59
2023/07/23 06:08:35;;;;;;;14.68;14.18;;;;;;;-141.02;100.00;59968.94;5133943;27;20307;-65
2023/07/23 06:11:02;;;;;;;14.40;13.90;;;;;;;-141.02;100.00;60709.94;5133554;27;20682;-64
2023/07/23 06:13:29;;;;;;;14.52;14.02;;;;;;;-141.02;100.00;60709.94;5133708;27;20655;-62
2023/07/23 06:15:57;;;;;;;15.18;14.57;;;;;;;-141.02;100.00;59968.94;5133821;27;20564;-65
2023/07/23 06:18:24;;;;;;;15.75;15.15;;;;;;;-141.02;99.29;58734.28;5133790;27;20273;-60
2023/07/23 06:20:51;;;;;;;16.17;15.48;;;;;;;-141.02;98.02;58981.19;5133824;27;20273;-60
2023/07/23 06:23:18;;;;;;;22.52;21.50;;;;;;;-141.02;97.88;59475.03;5133704;27;20276;-58
2023/07/23 06:25:45;;;;;;;15.85;15.25;;;;;;;-141.02;98.72;58981.19;5133208;27;20283;-61
2023/07/23 06:28:12;;;;;;;16.10;15.40;;;;;;;-141.02;98.41;58981.19;5133234;27;20224;-59
2023/07/23 06:30:39;;;;;;;16.95;16.15;;;;;;;-141.02;93.86;58487.41;5133727;27;20640;-61
2023/07/23 06:33:07;;;;;;;17.52;16.63;;;;;;;-141.02;94.40;57384.41;5133316;27;20287;-58
2023/07/23 06:35:37;;;;;;;16.92;16.13;;;;;;;-141.02;95.31;56620.97;5133057;27;20349;-58
2023/07/23 06:38:04;;;;;;;16.83;16.05;;;;;;;-141.02;92.89;56759.78;5133223;27;20196;-65
2023/07/23 06:40:31;;;;;;;16.95;16.25;;;;;;;-141.02;92.63;56493.75;5133425;27;20252;-59
2023/07/23 06:42:58;;;;;;;17.25;16.48;;;;;;;-141.02;90.18;56700.00;5133411;27;20287;-63
2023/07/23 06:45:25;;;;;;;18.35;17.55;;;;;;;-141.02;87.22;56065.88;5133077;27;20654;-63
2023/07/23 06:47:52;;;;;;;18.55;17.67;;;;;;;-141.02;87.15;55736.31;5133242;27;20275;-61
2023/07/23 06:50:20;;;;;;;17.90;17.10;;;;;;;-141.02;86.29;56434.00;5133383;27;20194;-62
2023/07/23 06:52:48;;;;;;;17.90;17.10;;;;;;;-141.02;87.95;54640.00;5133003;27;20654;-59
2023/07/23 06:55:15;;;;;;;17.88;17.08;;;;;;;-141.02;87.36;53919.56;5133289;27;20223;-61
2023/07/23 06:57:42;;;;;;;18.23;17.42;;;;;;;-141.02;88.08;55189.06;5132907;27;20291;-60
2023/07/23 07:00:10;;;;;;;18.35;17.55;;;;;;;-141.02;86.66;55749.81;5132924;27;20727;-61
2023/07/23 07:02:38;;;;;;;18.52;17.73;;;;;;;-141.02;84.60;55981.06;5133206;27;20283;-64
2023/07/23 07:05:06;;;;;;;18.13;17.33;;;;;;;-141.02;84.13;56609.41;5133144;28;20192;-61
2023/07/23 07:07:35;;;;;;;19.15;18.25;;;;;;;-141.02;81.06;55497.38;5133208;28;20651;-61
2023/07/23 07:10:02;;;;;;;19.08;18.17;;;;;;;-141.02;80.92;55283.50;5133238;27;20238;-59
2023/07/23 07:12:29;;;;;;;19.33;18.42;;;;;;;-141.02;78.90;55248.81;5133138;28;20242;-59
2023/07/23 07:14:56;;;;;;;19.67;18.77;;;;;;;-141.02;77.94;54561.00;5132743;28;20666;-59
2023/07/23 07:17:23;;;;;;;19.73;18.83;;;;;;;-141.02;79.70;54206.56;5133125;27;20249;-66
2023/07/23 07:19:51;;;;;;;19.40;18.50;;;;;;;-141.02;80.94;53276.31;5132748;28;20571;-63
2023/07/23 07:22:18;;;;;;;19.05;18.25;;;;;;;-141.02;80.44;53351.44;5132975;28;20192;-63
2023/07/23 07:24:46;;;;;;;35.15;33.33;;;;;;;-141.02;79.56;52086.44;5132975;27;20200;-61
2023/07/23 07:27:14;;;;;;;19.15;18.25;;;;;;;-141.02;79.72;52679.41;5132970;28;20587;-62
2023/07/23 07:29:42;;;;;;;19.40;18.50;;;;;;;-141.02;77.79;52652.44;5132521;28;20224;-58
2023/07/23 07:32:09;;;;;;;19.25;18.35;;;;;;;-141.02;78.17;52952.81;5132639;28;20188;-64
2023/07/23 07:34:36;;;;;;;20.85;19.85;;;;;;;-141.02;75.42;52727.53;5132512;28;20235;-66
2023/07/23 07:37:03;;;;;;;21.00;20.00;;;;;;;-141.02;73.82;52694.81;5134350;27;20214;-65
2023/07/23 07:39:30;;;;;;;20.83;19.83;;;;;;;-141.02;73.02;52871.94;5136591;27;20655;-64
2023/07/23 07:41:58;;;;;;;20.65;19.65;;;;;;;-141.02;70.14;52217.34;5136920;27;20645;-65
2023/07/23 07:44:25;;;;;;;21.80;20.70;;;;;;;-141.02;71.14;52895.06;5136510;27;20192;-63
2023/07/23 07:46:52;;;;;;;21.88;20.77;;;;;;;-141.02;71.23;53486.22;5136462;27;20291;-61
2023/07/23 07:49:19;;;;;;;22.33;21.20;;;;;;;-141.02;67.23;51301.13;5136362;27;20228;-64
2023/07/23 07:51:48;;;;;;;22.73;21.55;;;;;;;-141.02;68.72;51688.00;5136356;27;20628;-65
2023/07/23 07:54:15;;;;;;;21.73;20.60;;;;;;;-141.02;67.73;50577.56;5136363;27;20196;-65
2023/07/23 07:56:43;;;;;;;21.42;20.33;;;;;;;-141.02;68.25;49934.97;5136562;27;20192;-65
2023/07/23 07:59:12;;;;;;;20.83;19.73;;;;;;;-141.02;70.99;49519.44;5136339;27;20743;-63
2023/07/23 08:01:39;;;;;;;21.02;19.92;;;;;;;-141.02;69.29;49169.38;5136241;27;20283;-65
2023/07/23 08:04:07;;;;;;;37.78;35.67;;;;;;;-141.02;67.52;49311.72;5136398;27;20296;-58
2023/07/23 08:06:34;;;;;;;22.48;21.27;;;;;;;-141.02;68.77;49223.22;5136095;27;20248;-59
2023/07/23 08:09:04;;;;;;;22.55;21.35;;;;;;;-141.02;69.05;48396.28;5136000;27;20224;-59
2023/07/23 08:11:31;;;;;;;41.97;39.78;;;;;;;-141.02;67.77;48369.34;5136331;27;20215;-59
2023/07/23 08:13:59;;;;;;;22.33;21.15;;;;;;;-141.02;66.59;48911.66;5135882;27;20189;-60
2023/07/23 08:16:28;;;;;;;22.05;20.85;;;;;;;-141.02;65.99;48403.97;5135684;27;20192;-63
2023/07/23 08:18:55;;;;;;;22.08;20.88;;;;;;;-141.02;66.47;48453.97;5136072;27;20219;-65
2023/07/23 08:21:23;;;;;;;22.00;20.80;;;;;;;-141.02;65.35;48325.13;5135719;27;20232;-65
2023/07/23 08:23:50;;;;;;;22.05;20.85;;;;;;;-141.02;64.33;48684.72;5136110;27;20247;-61
2023/07/23 08:26:21;;;;;;;22.50;21.30;;;;;;;-141.02;65.39;49304.00;5135628;27;20197;-58
2023/07/23 08:28:51;;;;;;;22.90;21.60;;;;;;;-141.02;62.33;47523.38;5135980;27;20303;-65
2023/07/23 08:31:19;;;;;;;22.88;21.58;;;;;;;-141.02;62.91;47627.19;5135931;27;20195;-59
2023/07/23 08:33:48;;;;;;;22.52;21.25;;;;;;;-141.02;62.43;47711.78;5135653;27;20228;-60
2023/07/23 08:36:16;;;;;;;22.90;21.60;;;;;;;-141.02;61.38;47961.72;5135919;27;20271;-63
2023/07/23 08:38:44;;;;;;;23.00;21.70;;;;;;;-141.02;59.95;47369.59;5135789;27;20204;-61
2023/07/23 08:41:22;;;;;;;22.92;21.63;;;;;;;-141.02;61.25;47621.44;5135821;27;20279;-60
2023/07/23 08:44:16;;;;;;;23.33;22.02;;;;;;;-141.02;61.00;47654.13;5135749;27;20301;-58
2023/07/23 08:46:45;;;;;;;23.58;22.35;;;;;;;-141.02;60.75;46723.75;5135327;27;20576;-58
2023/07/23 08:49:16;;;;;;;21.98;20.77;;;;;;;-141.02;61.29;46226.00;5135075;27;20228;-61
2023/07/23 08:51:45;;;;;;;22.48;21.17;;;;;;;-141.02;62.79;46204.88;5135226;27;20194;-59
2023/07/23 08:54:14;;;;;;;23.17;21.88;;;;;;;-141.02;61.63;46320.16;5135540;27;20219;-60
2023/07/23 08:56:42;;;;;;;22.75;21.45;;;;;;;-141.02;60.50;46356.69;5135090;27;20728;-58
2023/07/23 08:59:10;;;;;;;22.40;21.10;;;;;;;-141.02;59.99;46448.91;5135098;27;20663;-58
2023/07/23 09:01:38;;;;;;;38.20;36.05;;;;;;;-141.02;59.81;46677.63;5135310;27;20268;-61
2023/07/23 09:04:06;;;;;;;23.00;21.70;;;;;;;-141.02;59.68;46412.41;5135253;27;20631;-60
2023/07/23 09:06:35;;;;;;;22.60;21.30;;;;;;;-141.02;58.10;46318.25;5134885;27;20797;-62
2023/07/23 09:09:07;;;;;;;22.85;21.55;;;;;;;-141.02;58.76;45997.31;5135039;27;20714;-60
2023/07/23 09:11:34;;;;;;;22.90;21.60;;;;;;;-141.02;56.73;45824.41;5134835;27;20291;-58
2023/07/23 09:14:02;;;;;;;22.90;21.60;;;;;;;-141.02;56.65;45820.56;5135044;27;20588;-60
2023/07/23 09:16:29;;;;;;;22.88;21.58;;;;;;;-141.02;57.10;46074.19;5134716;27;20196;-62
2023/07/23 09:18:57;;;;;;;23.10;21.80;;;;;;;-141.02;57.99;46189.50;5134620;27;20555;-59
2023/07/23 09:21:25;;;;;;;23.50;22.10;;;;;;;-141.02;57.79;46128.00;5134516;27;20210;-61
2023/07/23 09:23:54;;;;;;;22.73;21.42;;;;;;;-141.02;56.71;46293.25;5134911;27;20196;-65
2023/07/23 09:26:23;;;;;;;23.70;22.30;;;;;;;-141.02;55.52;45978.13;5134811;27;20220;-65
2023/07/23 09:28:52;;;;;;;23.38;21.98;;;;;;;-141.02;55.81;45916.63;5134650;27;20227;-58
2023/07/23 09:31:27;;;;;;;22.77;21.48;;;;;;;-141.02;56.60;46258.66;5134743;27;20595;-58
2023/07/23 09:33:55;;;;;;;23.25;21.85;;;;;;;-141.02;55.72;46174.13;5134412;27;20223;-61
2023/07/23 09:36:23;;;;;;;24.00;22.60;;;;;;;-141.02;55.69;45812.88;5134279;27;20200;-58
2023/07/23 09:38:56;;;;;;;23.30;21.90;;;;;;;-141.02;54.82;45736.00;5134840;27;20196;-61
2023/07/23 09:41:23;;;;;;;23.23;21.83;;;;;;;-141.02;55.46;45803.25;5134551;27;20192;-61
2023/07/23 09:43:51;;;;;;;28.35;26.67;;;;;;;-141.02;53.34;45326.78;5134082;27;20239;-61
2023/07/23 09:46:18;;;;;;;23.77;22.48;;;;;;;-141.02;54.46;45228.78;5134401;27;20195;-64
2023/07/23 09:48:48;;;;;;;23.17;21.77;;;;;;;-141.02;56.03;45326.78;5133873;27;20199;-63
2023/07/23 09:51:15;;;;;;;23.20;21.80;;;;;;;-141.02;55.70;45593.81;5134094;27;20238;-65
2023/07/23 09:53:45;;;;;;;22.90;21.50;;;;;;;-141.02;56.05;45082.78;5133961;27;20670;-65
2023/07/23 09:56:15;;;;;;;23.10;21.70;;;;;;;-141.02;55.45;44821.53;5134453;27;20230;-60
2023/07/23 09:58:44;;;;;;;22.75;21.35;;;;;;;-141.02;55.93;45140.44;5134626;27;20193;-60
2023/07/23 10:01:12;;;;;;;22.95;21.55;;;;;;;-141.02;56.04;44825.38;5133288;27;20603;-61
2023/07/23 10:03:40;;;;;;;22.52;21.23;;;;;;;-141.02;55.23;45190.38;5134087;27;20192;-63
2023/07/23 10:06:11;;;;;;;22.33;21.02;;;;;;;-141.02;55.53;45388.25;5133675;27;20196;-63
2023/07/23 10:08:41;;;;;;;22.65;21.25;;;;;;;-141.02;55.25;45090.47;5133691;27;20180;-61
2023/07/23 10:11:08;;;;;;;45.72;42.83;;;;;;;-141.02;55.95;44898.38;5134155;27;20256;-61
2023/07/23 10:13:37;;;;;;;21.90;20.60;;;;;;;-141.02;54.56;45063.59;5133853;27;20261;-63
2023/07/23 10:16:08;;;;;;;23.15;21.75;;;;;;;-141.02;54.71;45117.38;5133442;27;20558;-61
2023/07/23 10:18:39;;;;;;;45.58;42.78;;;;;;;-141.02;55.09;44825.38;5133483;27;20671;-62
2023/07/23 10:21:08;;;;;;;41.30;38.83;;;;;;;-141.02;55.37;44752.38;5133356;27;20224;-65
2023/07/23 10:23:35;;;;;;;23.10;21.70;;;;;;;-141.02;54.91;44971.38;5133472;27;20197;-59
2023/07/23 10:26:22;;;;;;;22.92;21.52;;;;;;;-141.02;53.05;44896.47;5133423;27;20192;-61
2023/07/23 10:28:56;;;;;;;23.08;21.67;;;;;;;-141.02;54.71;44656.34;5133274;27;20568;-59
2023/07/23 10:31:25;;;;;;;22.73;21.33;;;;;;;-141.02;55.30;44644.81;5133314;27;20181;-61
2023/07/23 10:33:52;;;;;;;22.85;21.45;;;;;;;-141.02;55.25;44362.47;5133360;27;20250;-60
2023/07/23 10:36:22;;;;;;;22.85;21.45;;;;;;;-141.02;54.96;44729.34;5133209;27;20271;-59
2023/07/23 10:39:03;;;;;;;22.60;21.20;;;;;;;-141.02;54.28;44948.31;5133157;27;20622;-66
2023/07/23 10:41:54;;;;;;;23.02;21.63;;;;;;;-141.02;54.42;44798.50;5133136;27;20186;-61
2023/07/23 10:44:24;;;;;;;45.75;42.78;;;;;;;-141.02;54.19;44510.38;5133130;27;20197;-62
2023/07/23 10:46:51;;;;;;;22.98;21.48;;;;;;;-141.02;54.44;44756.22;5133652;27;20203;-62
2023/07/23 10:49:23;;;;;;;23.42;21.92;;;;;;;-141.02;54.29;44333.69;5133253;27;20224;-64
2023/07/23 10:51:51;;;;;;;45.38;42.50;;;;;;;-141.02;54.52;44825.38;5133235;27;20347;-63
2023/07/23 10:54:19;;;;;;;23.38;21.88;;;;;;;-141.02;54.07;45042.44;5133230;27;20200;-59
2023/07/23 10:56:48;;;;;;;22.60;21.20;;;;;;;-141.02;52.08;44737.03;5133298;27;20279;-59
2023/07/23 10:59:17;;;;;;;22.30;21.00;;;;;;;-141.02;52.25;44591.03;5132961;27;20204;-65
2023/07/23 11:01:46;;;;;;;22.58;21.17;;;;;;;-141.02;53.62;44783.13;5132954;27;20568;-58
2023/07/23 11:04:14;;;;;;;22.77;21.45;;;;;;;-141.02;52.47;44587.19;5132921;27;20197;-59
2023/07/23 11:06:56;;;;;;;23.05;21.67;;;;;;;-141.02;52.87;44710.13;5132873;28;20733;-58
2023/07/23 11:09:26;;;;;;;22.65;21.35;;;;;;;-141.02;52.23;44335.59;5133041;28;20346;-62
2023/07/23 11:11:57;;;;;;;23.02;21.65;;;;;;;-141.02;52.62;44477.72;5133988;27;20570;-62
2023/07/23 11:14:25;;;;;;;22.80;21.40;;;;;;;-141.02;52.45;44783.13;5137045;27;20291;-62
2023/07/23 11:16:55;;;;;;;44.50;41.80;;;;;;;-141.02;52.30;44360.56;5137306;27;20279;-61
2023/07/23 11:19:23;;;;;;;22.70;21.40;;;;;;;-141.02;51.61;44583.38;5136971;27;20194;-62
2023/07/23 11:21:52;;;;;;;22.55;21.25;;;;;;;-141.02;51.10;44279.91;5136889;27;20214;-60
2023/07/23 11:24:19;;;;;;;42.92;40.42;;;;;;;-141.02;51.17;44199.22;5137042;27;20279;-65
2023/07/23 11:26:47;;;;;;;44.13;41.42;;;;;;;-141.02;51.95;44393.22;5137128;27;20281;-58
2023/07/23 11:29:14;;;;;;;45.10;42.30;;;;;;;-141.02;51.91;44535.34;5136608;27;20214;-62
2023/07/23 11:31:42;;;;;;;23.50;22.00;;;;;;;-141.02;51.90;44493.09;5137013;27;20196;-61
2023/07/23 11:34:12;;;;;;;22.55;21.15;;;;;;;-141.02;51.31;44406.66;5136499;27;20717;-63
2023/07/23 11:36:39;;;;;;;23.25;21.77;;;;;;;-141.02;50.64;44222.28;5136653;27;20189;-58
2023/07/23 11:39:07;;;;;;;23.23;21.73;;;;;;;-141.02;50.99;44287.59;5136892;27;20280;-63
2023/07/23 11:41:36;;;;;;;22.73;21.40;;;;;;;-141.02;49.65;44172.34;5136742;27;20663;-59
2023/07/23 11:44:04;;;;;;;23.13;21.73;;;;;;;-141.02;50.08;43991.81;5136444;27;20195;-58
2023/07/23 11:46:33;;;;;;;23.33;21.92;;;;;;;-141.02;51.03;44137.78;5136295;27;20197;-59
2023/07/23 11:49:00;;;;;;;23.30;21.90;;;;;;;-141.02;50.72;44383.59;5136367;27;20193;-62
2023/07/23 11:51:31;;;;;;;23.38;21.88;;;;;;;-141.02;50.93;44326.00;5136578;27;20228;-63
2023/07/23 11:54:05;;;;;;;48.67;45.58;;;;;;;-141.02;50.24;44408.56;5136328;27;20647;-63
2023/07/23 11:56:35;;;;;;;23.30;21.80;;;;;;;-141.02;47.92;43947.66;5136598;27;20191;-60
2023/07/23 11:59:03;;;;;;;27.60;25.60;;;;;;;-141.02;50.06;43851.63;5136551;27;20188;-58
2023/07/23 12:01:30;;;;;;;50.08;46.78;;;;;;;-141.02;49.74;43899.66;5136601;27;20204;-63
2023/07/23 12:04:00;;;;;;;45.53;42.72;;;;;;;-141.02;49.71;43911.16;5136004;27;20243;-59
2023/07/23 12:06:30;;;;;;;23.42;21.92;;;;;;;-141.02;50.03;43972.63;5136344;27;20204;-60
2023/07/23 12:08:58;;;;;;;23.65;22.15;;;;;;;-141.02;50.18;43888.13;5135968;27;20200;-62
2023/07/23 12:11:29;;;;;;;23.05;21.65;;;;;;;-141.02;49.57;43915.00;5136228;27;20228;-60
2023/07/23 12:13:59;;;;;;;23.05;21.65;;;;;;;-141.02;49.92;44053.28;5135868;27;20223;-59
2023/07/23 12:16:40;;;;;;;23.55;22.05;;;;;;;-141.02;49.73;43934.22;5135967;27;20228;-66
2023/07/23 12:19:09;;;;;;;23.65;22.15;;;;;;;-141.02;50.68;43888.13;5136099;27;20272;-58